createdAt,value
2017-12-21T00:00:03.482Z,9.37
2017-12-21T00:04:47.946Z,8.60
2017-12-21T00:09:33.075Z,9.60
2017-12-21T00:14:17.528Z,9.57
2017-12-21T00:19:02.175Z,8.87
2017-12-21T00:23:47.864Z,9.57
2017-12-21T00:28:32.914Z,9.40
2017-12-21T00:33:17.295Z,10.50
2017-12-21T00:38:02.348Z,10.17
2017-12-21T00:42:46.614Z,10.07
2017-12-21T00:47:30.969Z,10.83
2017-12-21T00:52:15.212Z,8.97
2017-12-21T00:56:59.490Z,10.10
2017-12-21T01:01:43.802Z,9.70
2017-12-21T01:06:28.143Z,10.80
2017-12-21T01:11:12.425Z,11.83
2017-12-21T01:15:56.662Z,10.73
2017-12-21T01:20:48.675Z,10.27
2017-12-21T01:25:32.975Z,11.00
2017-12-21T01:30:17.252Z,11.60
2017-12-21T01:35:01.604Z,11.73
2017-12-21T01:39:52.695Z,10.07
2017-12-21T01:44:36.990Z,11.03
2017-12-21T01:49:21.275Z,11.37
2017-12-21T01:54:05.659Z,10.67
2017-12-21T01:58:50.095Z,11.87
2017-12-21T02:03:34.460Z,10.57
2017-12-21T02:08:19.180Z,10.77
2017-12-21T02:13:03.528Z,10.80
2017-12-21T02:17:47.839Z,11.07
2017-12-21T02:22:32.172Z,10.33
2017-12-21T02:27:16.483Z,10.47
2017-12-21T02:32:00.854Z,10.40
2017-12-21T02:36:46.690Z,8.97
2017-12-21T02:41:31.879Z,8.77
2017-12-21T02:46:16.204Z,8.70
2017-12-21T02:51:00.581Z,9.37
2017-12-21T02:55:44.930Z,9.50
2017-12-21T03:00:29.267Z,9.83
2017-12-21T03:05:14.414Z,7.97
2017-12-21T03:09:59.035Z,7.93
2017-12-21T03:14:43.484Z,8.03
2017-12-21T03:19:28.775Z,7.90
2017-12-21T03:24:13.089Z,8.40
2017-12-21T03:28:57.415Z,7.37
2017-12-21T03:33:41.703Z,9.07
2017-12-21T03:38:25.971Z,8.53
2017-12-21T03:43:10.240Z,7.23
2017-12-21T03:47:54.520Z,7.40
2017-12-21T03:52:38.822Z,6.93
2017-12-21T03:57:23.171Z,6.10
2017-12-21T04:02:07.783Z,5.43
2017-12-21T04:06:52.098Z,4.30
2017-12-21T04:11:36.332Z,4.30
2017-12-21T04:16:20.639Z,3.97
2017-12-21T04:21:06.385Z,4.50
2017-12-21T04:25:50.656Z,4.50
2017-12-21T04:30:34.918Z,4.17
2017-12-21T04:35:19.259Z,4.47
2017-12-21T04:40:04.315Z,3.83
2017-12-21T04:44:48.604Z,4.53
2017-12-21T04:49:32.943Z,3.70
2017-12-21T04:54:17.293Z,3.87
2017-12-21T04:59:02.390Z,3.73
2017-12-21T05:03:46.790Z,4.03
2017-12-21T05:08:31.735Z,3.93
2017-12-21T05:13:16.255Z,3.90
2017-12-21T05:18:00.661Z,5.07
2017-12-21T05:22:45.551Z,4.70
2017-12-21T05:27:29.829Z,4.73
2017-12-21T05:32:14.121Z,5.07
2017-12-21T05:36:58.354Z,4.83
2017-12-21T05:41:42.651Z,5.73
2017-12-21T05:46:26.983Z,5.33
2017-12-21T05:51:11.281Z,5.03
2017-12-21T05:55:55.992Z,4.03
2017-12-21T06:00:40.387Z,4.23
2017-12-21T06:05:24.706Z,3.57
2017-12-21T06:10:09.943Z,4.23
2017-12-21T06:14:54.258Z,4.50
2017-12-21T06:19:38.629Z,3.90
2017-12-21T06:24:23.861Z,3.63
2017-12-21T06:29:08.255Z,3.73
2017-12-21T06:33:53.026Z,4.20
2017-12-21T06:38:37.367Z,3.83
2017-12-21T06:43:21.682Z,3.87
2017-12-21T06:48:06.139Z,3.80
2017-12-21T06:52:50.448Z,3.27
2017-12-21T06:57:34.844Z,3.33
2017-12-21T07:02:19.235Z,2.93
2017-12-21T07:07:05.273Z,2.83
2017-12-21T07:11:49.616Z,3.17
2017-12-21T07:16:34.276Z,2.93
2017-12-21T07:21:18.789Z,3.27
2017-12-21T07:26:03.286Z,2.90
2017-12-21T07:30:47.712Z,3.23
2017-12-21T07:35:32.916Z,3.57
2017-12-21T07:40:17.316Z,3.50
2017-12-21T07:45:01.665Z,4.30
2017-12-21T07:49:46.201Z,3.60
2017-12-21T07:54:30.488Z,3.17
2017-12-21T07:59:15.776Z,3.50
2017-12-21T08:04:00.371Z,3.47
2017-12-21T08:08:44.731Z,2.90
2017-12-21T08:13:29.122Z,2.67
2017-12-21T08:18:13.946Z,3.10
2017-12-21T08:22:59.064Z,2.47
2017-12-21T08:27:43.491Z,2.87
2017-12-21T08:32:27.752Z,2.33
2017-12-21T08:37:12.020Z,2.60
2017-12-21T08:41:56.349Z,2.77
2017-12-21T08:46:40.866Z,2.53
2017-12-21T08:51:25.187Z,2.63
2017-12-21T08:56:09.676Z,2.90
2017-12-21T09:00:54.145Z,2.60
2017-12-21T09:05:38.592Z,2.87
2017-12-21T09:10:22.950Z,2.93
2017-12-21T09:15:12.366Z,3.53
2017-12-21T09:19:56.738Z,2.90
2017-12-21T09:24:41.757Z,3.33
2017-12-21T09:29:26.611Z,3.70
2017-12-21T09:34:11.064Z,3.93
2017-12-21T09:38:55.884Z,2.80
2017-12-21T09:43:40.494Z,2.60
2017-12-21T09:48:24.902Z,2.87
2017-12-21T09:53:09.317Z,2.90
2017-12-21T09:57:53.659Z,3.90
2017-12-21T10:02:38.669Z,3.07
2017-12-21T10:07:25.251Z,2.73
2017-12-21T10:12:09.808Z,2.90
2017-12-21T10:16:54.317Z,2.83
2017-12-21T10:21:39.355Z,3.07
2017-12-21T10:26:24.619Z,3.00
2017-12-21T10:31:09.134Z,2.90
2017-12-21T10:35:53.534Z,2.60
2017-12-21T10:40:38.751Z,2.83
2017-12-21T10:45:24.158Z,2.70
2017-12-21T10:50:08.740Z,2.00
2017-12-21T10:54:53.349Z,2.30
2017-12-21T10:59:37.941Z,2.13
2017-12-21T11:04:22.456Z,2.23
2017-12-21T11:09:06.947Z,2.33
2017-12-21T11:13:51.637Z,1.90
2017-12-21T11:18:36.109Z,1.70
2017-12-21T11:23:20.651Z,1.80
2017-12-21T11:28:05.171Z,1.80
2017-12-21T11:32:50.485Z,1.80
2017-12-21T11:37:34.966Z,2.13
2017-12-21T11:42:19.473Z,1.30
2017-12-21T11:47:05.768Z,1.10
2017-12-21T11:51:50.241Z,1.07
2017-12-21T11:56:34.729Z,0.97
2017-12-21T12:01:19.321Z,1.27
2017-12-21T12:06:03.907Z,1.50
2017-12-21T12:10:48.351Z,1.33
2017-12-21T12:15:33.605Z,1.40
2017-12-21T12:20:18.132Z,1.60
2017-12-21T12:25:02.635Z,1.60
2017-12-21T12:29:47.407Z,1.60
2017-12-21T12:34:32.180Z,1.70
2017-12-21T12:39:16.735Z,1.67
2017-12-21T12:44:01.210Z,1.80
2017-12-21T12:48:45.711Z,1.73
2017-12-21T12:53:31.863Z,2.30
2017-12-21T12:58:16.465Z,2.60
2017-12-21T13:03:00.865Z,2.80
2017-12-21T13:07:45.781Z,3.43
2017-12-21T13:12:30.237Z,3.43
2017-12-21T13:17:15.715Z,3.97
2017-12-21T13:22:00.281Z,4.07
2017-12-21T13:26:44.876Z,4.30
2017-12-21T13:31:29.295Z,4.07
2017-12-21T13:36:13.859Z,4.07
2017-12-21T13:40:58.626Z,4.70
2017-12-21T13:45:43.277Z,3.83
2017-12-21T13:50:28.576Z,4.27
2017-12-21T13:55:12.984Z,3.77
2017-12-21T14:15:40.749Z,5.47
2017-12-21T14:20:25.399Z,5.47
2017-12-21T14:25:10.003Z,6.17
2017-12-21T14:29:54.578Z,6.40
2017-12-21T14:34:39.169Z,7.23
2017-12-21T14:39:23.631Z,7.17
2017-12-21T14:44:08.095Z,7.93
2017-12-21T14:48:53.176Z,9.00
2017-12-21T14:53:37.900Z,7.57
2017-12-21T14:58:22.656Z,9.00
2017-12-21T15:03:08.278Z,9.87
2017-12-21T15:07:54.714Z,9.97
2017-12-21T15:12:39.528Z,9.93
2017-12-21T15:17:24.491Z,10.90
2017-12-21T15:22:08.995Z,11.67
2017-12-21T15:26:54.154Z,12.07
2017-12-21T15:31:40.970Z,12.10
2017-12-21T15:36:25.660Z,12.07
2017-12-21T15:41:10.238Z,11.90
2017-12-21T15:45:54.777Z,11.80
2017-12-21T15:50:39.713Z,13.47
2017-12-21T15:55:24.212Z,12.83
2017-12-21T16:00:08.942Z,13.57
2017-12-21T16:04:53.654Z,17.50
2017-12-21T16:09:38.222Z,21.47
2017-12-21T16:14:22.745Z,20.13
2017-12-21T16:19:07.727Z,15.33
2017-12-21T16:23:52.964Z,13.37
2017-12-21T16:28:38.262Z,14.20
2017-12-21T16:33:22.758Z,14.37
2017-12-21T16:38:08.567Z,14.90
2017-12-21T16:42:53.098Z,14.90
2017-12-21T16:47:38.214Z,15.03
2017-12-21T16:52:22.831Z,14.27
2017-12-21T16:57:07.521Z,14.13
2017-12-21T17:01:52.511Z,14.57
2017-12-21T17:06:37.103Z,15.40
2017-12-21T17:11:21.660Z,15.23
2017-12-21T17:16:07.507Z,15.30
2017-12-21T17:20:52.453Z,15.47
2017-12-21T17:25:37.066Z,15.63
2017-12-21T17:30:22.326Z,15.40
2017-12-21T17:35:37.430Z,15.37
2017-12-21T17:40:22.828Z,17.40
2017-12-21T17:45:08.115Z,23.55
2017-12-21T17:49:53.415Z,16.07
2017-12-21T17:54:38.664Z,14.00
2017-12-21T17:59:24.223Z,14.57
2017-12-21T18:04:09.363Z,16.87
2017-12-21T18:08:53.747Z,15.13
2017-12-21T18:13:38.022Z,15.97
2017-12-21T18:18:22.407Z,13.83
2017-12-21T18:23:06.824Z,14.03
2017-12-21T18:27:51.184Z,14.33
2017-12-21T18:43:13.121Z,15.40
2017-12-21T18:48:08.783Z,13.73
2017-12-21T18:52:59.705Z,13.70
2017-12-21T18:57:51.445Z,14.50
2017-12-21T19:03:00.533Z,12.73
2017-12-21T19:07:58.866Z,14.63
2017-12-21T19:17:57.954Z,15.37
2017-12-21T19:22:57.275Z,16.20
2017-12-21T19:27:53.346Z,14.47
2017-12-21T19:32:55.858Z,14.97
2017-12-21T19:42:57.696Z,14.90
2017-12-21T19:53:20.572Z,15.50
2017-12-21T19:58:25.450Z,14.33
2017-12-21T20:03:24.292Z,14.27
2017-12-21T20:08:12.933Z,13.67
2017-12-21T20:13:14.060Z,12.67
2017-12-21T20:18:10.960Z,12.47
2017-12-21T20:28:11.196Z,11.50
2017-12-21T20:33:18.235Z,11.50
2017-12-21T20:38:27.366Z,12.17
2017-12-21T20:43:25.839Z,11.63
2017-12-21T20:48:20.405Z,12.70
2017-12-21T20:53:20.338Z,13.37
2017-12-21T20:58:20.412Z,14.53
2017-12-21T21:03:25.268Z,14.10
2017-12-21T21:08:32.083Z,15.37
2017-12-21T21:13:29.231Z,14.17
2017-12-21T21:18:26.131Z,15.40
2017-12-21T21:23:14.120Z,15.17
2017-12-21T21:28:14.571Z,13.30
2017-12-21T21:33:20.725Z,14.00
2017-12-21T21:38:14.249Z,14.73
2017-12-21T21:43:05.604Z,14.73
2017-12-21T21:47:57.889Z,15.13
2017-12-21T21:52:45.066Z,15.63
2017-12-21T21:57:29.375Z,13.97
2017-12-21T22:02:14.501Z,13.73
2017-12-21T22:06:58.806Z,15.73
2017-12-21T22:11:44.051Z,15.93
2017-12-21T22:16:28.345Z,17.50
2017-12-21T22:21:19.441Z,16.30
2017-12-21T22:26:06.267Z,16.33
2017-12-21T22:30:50.525Z,17.90
2017-12-21T22:41:14.619Z,14.97
2017-12-21T22:46:03.924Z,16.93
2017-12-21T22:50:48.331Z,15.43
2017-12-21T22:55:32.610Z,16.97
2017-12-21T23:00:25.077Z,16.63
2017-12-21T23:05:09.364Z,16.43
2017-12-21T23:09:53.689Z,15.50
2017-12-21T23:14:37.967Z,14.77
2017-12-21T23:19:22.271Z,15.07
2017-12-21T23:24:07.415Z,15.63
2017-12-21T23:28:51.704Z,14.83
2017-12-21T23:33:36.007Z,15.33
2017-12-21T23:38:20.351Z,16.97
2017-12-21T23:43:06.749Z,17.47
2017-12-21T23:47:51.219Z,18.97
2017-12-21T23:52:35.575Z,16.93
2017-12-21T23:57:19.847Z,18.03
